createdAt,value
2018-07-21T00:02:26.576Z,21.47
2018-07-21T00:04:55.446Z,21.48
2018-07-21T00:07:24.238Z,21.44
2018-07-21T00:09:53.016Z,21.43
2018-07-21T00:12:21.827Z,21.46
2018-07-21T00:14:50.557Z,21.40
2018-07-21T00:17:19.377Z,21.36
2018-07-21T00:19:48.149Z,21.34
2018-07-21T00:22:16.925Z,21.33
2018-07-21T00:24:45.668Z,21.29
2018-07-21T00:27:15.421Z,21.27
2018-07-21T00:29:44.368Z,21.30
2018-07-21T00:32:13.183Z,21.29
2018-07-21T00:34:41.992Z,21.22
2018-07-21T00:37:10.819Z,21.20
2018-07-21T00:39:39.649Z,21.16
2018-07-21T00:42:08.695Z,21.21
2018-07-21T00:44:37.614Z,21.16
2018-07-21T00:47:06.947Z,21.19
2018-07-21T00:49:35.690Z,21.17
2018-07-21T00:52:04.494Z,21.13
2018-07-21T00:54:33.240Z,21.12
2018-07-21T00:57:02.046Z,21.09
2018-07-21T00:59:30.821Z,21.18
2018-07-21T01:01:59.642Z,21.14
2018-07-21T01:04:28.454Z,21.09
2018-07-21T01:06:57.238Z,21.07
2018-07-21T01:09:25.997Z,21.04
2018-07-21T01:11:54.796Z,21.03
2018-07-21T01:14:23.691Z,21.06
2018-07-21T01:16:52.499Z,21.02
2018-07-21T01:19:21.306Z,21.00
2018-07-21T01:21:50.054Z,21.03
2018-07-21T01:24:18.814Z,21.03
2018-07-21T01:26:47.643Z,21.00
2018-07-21T01:29:16.439Z,20.94
2018-07-21T01:31:45.204Z,20.94
2018-07-21T01:34:14.016Z,20.96
2018-07-21T01:36:42.862Z,20.92
2018-07-21T01:39:12.478Z,20.90
2018-07-21T01:41:41.492Z,20.86
2018-07-21T01:44:10.276Z,20.88
2018-07-21T01:46:39.434Z,20.83
2018-07-21T01:49:08.280Z,20.76
2018-07-21T01:51:37.066Z,20.74
2018-07-21T01:54:05.945Z,20.73
2018-07-21T01:56:34.740Z,20.72
2018-07-21T01:59:03.540Z,20.70
2018-07-21T02:01:32.370Z,20.68
2018-07-21T02:04:01.149Z,20.64
2018-07-21T02:06:29.941Z,20.64
2018-07-21T02:08:58.731Z,20.59
2018-07-21T02:11:27.466Z,20.54
2018-07-21T02:13:56.273Z,20.51
2018-07-21T02:16:25.037Z,20.48
2018-07-21T02:18:53.799Z,20.39
2018-07-21T02:21:22.587Z,20.37
2018-07-21T02:23:51.389Z,20.29
2018-07-21T02:26:20.297Z,20.25
2018-07-21T02:28:49.079Z,20.24
2018-07-21T02:31:18.155Z,20.22
2018-07-21T02:33:46.950Z,20.19
2018-07-21T02:36:15.707Z,20.22
2018-07-21T02:38:44.474Z,20.28
2018-07-21T02:41:13.282Z,20.25
2018-07-21T02:43:42.034Z,20.19
2018-07-21T02:46:10.827Z,20.17
2018-07-21T02:48:39.585Z,20.13
2018-07-21T02:51:08.352Z,20.09
2018-07-21T02:53:37.105Z,20.06
2018-07-21T02:56:05.917Z,20.05
2018-07-21T02:58:34.674Z,20.05
2018-07-21T03:01:03.478Z,20.01
2018-07-21T03:03:32.247Z,19.99
2018-07-21T03:06:01.054Z,19.95
2018-07-21T03:08:29.804Z,19.92
2018-07-21T03:10:58.770Z,19.91
2018-07-21T03:13:27.570Z,19.89
2018-07-21T03:15:56.346Z,19.88
2018-07-21T03:18:25.128Z,19.86
2018-07-21T03:20:53.918Z,19.84
2018-07-21T03:23:22.712Z,19.81
2018-07-21T03:25:51.629Z,19.79
2018-07-21T03:28:20.460Z,19.82
2018-07-21T03:30:49.279Z,19.82
2018-07-21T03:33:18.217Z,19.77
2018-07-21T03:35:46.949Z,19.73
2018-07-21T03:38:15.806Z,19.63
2018-07-21T03:40:44.594Z,19.65
2018-07-21T03:43:13.347Z,19.65
2018-07-21T03:45:42.118Z,19.67
2018-07-21T03:48:10.871Z,19.62
2018-07-21T03:50:39.671Z,19.60
2018-07-21T03:53:08.462Z,19.54
2018-07-21T03:55:37.206Z,19.47
2018-07-21T03:58:06.182Z,19.45
2018-07-21T04:00:34.967Z,19.48
2018-07-21T04:03:04.019Z,19.52
2018-07-21T04:05:32.914Z,19.53
2018-07-21T04:08:01.715Z,19.59
2018-07-21T04:10:30.458Z,19.61
2018-07-21T04:12:59.218Z,19.63
2018-07-21T04:15:27.973Z,19.68
2018-07-21T04:17:56.753Z,19.67
2018-07-21T04:20:25.561Z,19.66
2018-07-21T04:22:54.305Z,19.63
2018-07-21T04:25:23.101Z,19.63
2018-07-21T04:27:52.013Z,19.62
2018-07-21T04:30:20.836Z,19.71
2018-07-21T04:32:49.614Z,19.64
2018-07-21T04:35:18.365Z,19.74
2018-07-21T04:37:49.911Z,19.86
2018-07-21T04:40:18.744Z,19.91
2018-07-21T04:42:47.503Z,19.94
2018-07-21T04:45:16.286Z,20.01
2018-07-21T04:47:45.146Z,20.13
2018-07-21T04:50:13.893Z,20.21
2018-07-21T04:52:42.738Z,20.36
2018-07-21T04:55:11.573Z,20.65
2018-07-21T04:57:40.327Z,21.19
2018-07-21T05:00:09.710Z,22.30
2018-07-21T05:02:38.468Z,23.54
2018-07-21T05:05:07.282Z,24.75
2018-07-21T05:07:36.060Z,25.73
2018-07-21T05:10:09.738Z,26.53
2018-07-21T05:12:38.793Z,27.38
2018-07-21T05:15:07.597Z,27.75
2018-07-21T05:17:36.480Z,28.07
2018-07-21T05:20:05.642Z,28.23
2018-07-21T05:22:34.579Z,28.66
2018-07-21T05:25:03.425Z,28.64
2018-07-21T05:27:32.356Z,28.99
2018-07-21T05:30:01.122Z,29.00
2018-07-21T05:32:29.880Z,29.40
2018-07-21T05:34:58.675Z,29.48
2018-07-21T05:37:27.537Z,29.71
2018-07-21T05:39:56.288Z,29.67
2018-07-21T05:42:25.082Z,29.84
2018-07-21T05:44:53.949Z,29.90
2018-07-21T05:47:22.831Z,29.64
2018-07-21T05:49:51.650Z,29.46
2018-07-21T05:52:20.405Z,29.35
2018-07-21T05:54:49.577Z,28.81
2018-07-21T05:57:18.399Z,28.35
2018-07-21T05:59:47.229Z,27.85
2018-07-21T06:02:15.976Z,27.43
2018-07-21T06:04:44.790Z,27.07
2018-07-21T06:07:13.557Z,26.74
2018-07-21T06:09:42.335Z,26.61
2018-07-21T06:12:11.157Z,26.53
2018-07-21T06:14:39.940Z,26.37
2018-07-21T06:17:08.834Z,26.17
2018-07-21T06:19:37.750Z,25.68
2018-07-21T06:22:06.481Z,25.48
2018-07-21T06:24:36.005Z,25.40
2018-07-21T06:27:05.246Z,25.31
2018-07-21T06:29:34.054Z,25.30
2018-07-21T06:32:02.878Z,25.26
2018-07-21T06:34:31.643Z,25.31
2018-07-21T06:37:00.423Z,25.28
2018-07-21T06:39:29.194Z,25.17
2018-07-21T06:41:57.966Z,24.98
2018-07-21T06:44:26.737Z,24.90
2018-07-21T06:46:55.466Z,24.82
2018-07-21T06:49:24.290Z,24.75
2018-07-21T06:51:53.116Z,24.67
2018-07-21T06:54:22.021Z,24.46
2018-07-21T06:56:50.865Z,24.34
2018-07-21T06:59:19.625Z,24.16
2018-07-21T07:01:48.426Z,24.13
2018-07-21T07:04:17.206Z,24.08
2018-07-21T07:06:46.608Z,24.13
2018-07-21T07:09:15.414Z,24.19
2018-07-21T07:11:44.189Z,24.20
2018-07-21T07:14:13.032Z,24.26
2018-07-21T07:16:41.818Z,24.27
2018-07-21T07:19:10.607Z,24.20
2018-07-21T07:21:39.410Z,24.14
2018-07-21T07:24:08.179Z,24.19
2018-07-21T07:26:37.014Z,24.17
2018-07-21T07:29:05.927Z,24.17
2018-07-21T07:31:34.711Z,24.22
2018-07-21T07:34:03.550Z,24.35
2018-07-21T07:36:32.363Z,24.38
2018-07-21T07:39:02.166Z,24.42
2018-07-21T07:41:30.928Z,24.42
2018-07-21T07:43:59.698Z,24.53
2018-07-21T07:46:28.481Z,24.65
2018-07-21T07:48:57.246Z,24.53
2018-07-21T07:51:26.027Z,24.59
2018-07-21T07:53:54.786Z,24.64
2018-07-21T07:56:23.527Z,24.78
2018-07-21T07:58:52.686Z,24.89
2018-07-21T08:01:21.633Z,25.02
2018-07-21T08:03:50.589Z,25.17
2018-07-21T08:06:19.445Z,25.27
2018-07-21T08:08:48.256Z,25.29
2018-07-21T08:11:17.131Z,25.27
2018-07-21T08:13:45.971Z,25.05
2018-07-21T08:16:14.738Z,24.98
2018-07-21T08:18:43.510Z,24.99
2018-07-21T08:21:12.301Z,25.12
2018-07-21T08:23:41.086Z,25.13
2018-07-21T08:26:09.913Z,25.03
2018-07-21T08:28:38.699Z,25.03
2018-07-21T08:31:07.502Z,25.04
2018-07-21T08:33:36.306Z,25.10
2018-07-21T08:36:05.267Z,24.97
2018-07-21T08:38:34.118Z,25.04
2018-07-21T08:41:06.597Z,25.12
2018-07-21T08:43:35.495Z,25.18
2018-07-21T08:46:04.650Z,25.09
2018-07-21T08:48:33.467Z,25.04
2018-07-21T08:51:02.249Z,25.08
2018-07-21T08:53:31.072Z,25.13
2018-07-21T08:55:59.882Z,25.23
2018-07-21T08:58:28.846Z,25.08
2018-07-21T09:00:57.606Z,25.11
2018-07-21T09:03:26.370Z,25.18
2018-07-21T09:05:55.129Z,25.29
2018-07-21T09:08:23.942Z,25.20
2018-07-21T09:10:52.705Z,25.24
2018-07-21T09:13:21.510Z,25.34
2018-07-21T09:15:50.262Z,25.44
2018-07-21T09:18:19.138Z,25.51
2018-07-21T09:20:48.044Z,25.59
2018-07-21T09:23:17.211Z,25.55
2018-07-21T09:25:45.982Z,25.47
2018-07-21T09:28:14.818Z,25.49
2018-07-21T09:30:44.164Z,25.56
2018-07-21T09:33:13.287Z,25.62
2018-07-21T09:35:42.089Z,25.70
2018-07-21T09:38:10.898Z,25.62
2018-07-21T09:40:39.658Z,25.62
2018-07-21T09:43:09.150Z,25.67
2018-07-21T09:45:38.028Z,25.77
2018-07-21T09:48:07.987Z,25.83
2018-07-21T09:50:36.998Z,25.94
2018-07-21T09:53:05.778Z,26.00
2018-07-21T09:55:34.638Z,26.09
2018-07-21T09:58:03.739Z,26.07
2018-07-21T10:00:37.809Z,26.11
2018-07-21T10:03:06.633Z,26.17
2018-07-21T10:05:35.412Z,26.23
2018-07-21T10:08:04.207Z,26.38
2018-07-21T10:10:33.021Z,26.29
2018-07-21T10:13:01.779Z,26.38
2018-07-21T10:15:31.728Z,26.46
2018-07-21T10:18:00.745Z,26.38
2018-07-21T10:20:29.587Z,26.41
2018-07-21T10:22:58.430Z,26.38
2018-07-21T10:25:32.468Z,26.32
2018-07-21T10:28:06.455Z,26.38
2018-07-21T10:30:35.462Z,26.43
2018-07-21T10:33:04.220Z,26.48
2018-07-21T10:35:33.031Z,26.44
2018-07-21T10:38:01.923Z,26.37
2018-07-21T10:40:30.945Z,26.30
2018-07-21T10:42:59.876Z,26.32
2018-07-21T10:45:28.650Z,26.37
2018-07-21T10:47:57.501Z,26.42
2018-07-21T10:50:26.418Z,26.58
2018-07-21T10:52:55.236Z,26.63
2018-07-21T10:55:24.026Z,26.55
2018-07-21T10:57:53.010Z,26.65
2018-07-21T11:00:22.452Z,26.70
2018-07-21T11:02:51.451Z,26.74
2018-07-21T11:05:20.253Z,26.80
2018-07-21T11:07:49.108Z,26.70
2018-07-21T11:10:17.875Z,26.72
2018-07-21T11:12:46.683Z,26.83
2018-07-21T11:15:15.897Z,26.89
2018-07-21T11:17:44.811Z,26.94
2018-07-21T11:20:13.787Z,26.95
2018-07-21T11:22:42.558Z,26.92
2018-07-21T11:25:11.747Z,26.90
2018-07-21T11:27:40.563Z,26.90
2018-07-21T11:30:09.485Z,26.95
2018-07-21T11:32:38.234Z,26.97
2018-07-21T11:35:07.554Z,26.99
2018-07-21T11:37:36.467Z,26.99
2018-07-21T11:40:05.761Z,27.06
2018-07-21T11:42:34.582Z,27.09
2018-07-21T11:45:03.396Z,27.09
2018-07-21T11:47:32.207Z,27.08
2018-07-21T11:50:01.078Z,27.00
2018-07-21T11:52:29.937Z,27.01
2018-07-21T11:54:58.804Z,27.14
2018-07-21T11:57:27.566Z,27.27
2018-07-21T11:59:56.362Z,27.39
2018-07-21T12:02:25.151Z,27.43
2018-07-21T12:04:53.941Z,27.31
2018-07-21T12:07:22.701Z,27.30
2018-07-21T12:09:51.495Z,27.30
2018-07-21T12:12:20.276Z,27.32
2018-07-21T12:14:49.279Z,27.45
2018-07-21T12:17:18.087Z,27.55
2018-07-21T12:19:46.995Z,27.52
2018-07-21T12:22:15.789Z,27.64
2018-07-21T12:24:44.589Z,27.67
2018-07-21T12:27:13.402Z,27.72
2018-07-21T12:29:42.244Z,27.64
2018-07-21T12:32:12.328Z,27.59
2018-07-21T12:34:41.228Z,27.63
2018-07-21T12:37:10.144Z,27.71
2018-07-21T12:39:38.866Z,27.75
2018-07-21T12:42:07.835Z,27.77
2018-07-21T12:44:36.650Z,27.81
2018-07-21T12:47:05.473Z,27.75
2018-07-21T12:49:34.254Z,27.79
2018-07-21T12:52:03.104Z,27.85
2018-07-21T12:54:31.912Z,27.82
2018-07-21T12:57:00.703Z,27.78
2018-07-21T12:59:29.462Z,27.87
2018-07-21T13:01:58.276Z,27.92
2018-07-21T13:04:27.164Z,27.92
2018-07-21T13:06:55.970Z,27.94
2018-07-21T13:09:24.788Z,27.99
2018-07-21T13:11:53.618Z,28.05
2018-07-21T13:14:22.466Z,28.00
2018-07-21T13:16:51.272Z,27.98
2018-07-21T13:19:20.006Z,27.96
2018-07-21T13:21:48.779Z,28.09
2018-07-21T13:24:17.627Z,28.10
2018-07-21T13:26:46.442Z,28.06
2018-07-21T13:29:15.241Z,28.14
2018-07-21T13:31:44.068Z,28.18
2018-07-21T13:34:13.056Z,28.25
2018-07-21T13:36:41.911Z,28.21
2018-07-21T13:39:12.199Z,28.21
2018-07-21T13:41:41.203Z,28.20
2018-07-21T13:44:10.164Z,28.27
2018-07-21T13:46:39.126Z,28.27
2018-07-21T13:49:08.331Z,28.35
2018-07-21T13:51:37.125Z,28.40
2018-07-21T13:54:05.997Z,28.42
2018-07-21T13:56:34.797Z,28.46
2018-07-21T13:59:03.644Z,28.43
2018-07-21T14:01:32.429Z,28.52
2018-07-21T14:04:01.229Z,28.55
2018-07-21T14:06:29.993Z,28.61
2018-07-21T14:08:58.761Z,28.67
2018-07-21T14:11:27.538Z,28.52
2018-07-21T14:13:56.472Z,28.49
2018-07-21T14:16:25.248Z,28.51
2018-07-21T14:18:54.155Z,28.55
2018-07-21T14:21:22.926Z,28.59
2018-07-21T14:23:51.703Z,28.59
2018-07-21T14:26:20.799Z,28.59
2018-07-21T14:28:49.603Z,28.62
2018-07-21T14:31:18.404Z,28.72
2018-07-21T14:33:47.204Z,28.69
2018-07-21T14:36:16.136Z,28.65
2018-07-21T14:38:44.954Z,28.72
2018-07-21T14:41:13.744Z,28.67
2018-07-21T14:43:42.488Z,28.70
2018-07-21T14:46:11.298Z,28.70
2018-07-21T14:48:40.150Z,28.75
2018-07-21T14:51:08.914Z,28.78
2018-07-21T14:53:37.711Z,28.77
2018-07-21T14:56:06.510Z,28.79
2018-07-21T14:58:35.345Z,28.76
2018-07-21T15:01:04.248Z,28.72
2018-07-21T15:03:33.073Z,28.69
2018-07-21T15:06:01.939Z,28.70
2018-07-21T15:08:30.694Z,28.75
2018-07-21T15:10:59.443Z,28.78
2018-07-21T15:13:28.223Z,28.73
2018-07-21T15:15:57.017Z,28.66
2018-07-21T15:18:25.807Z,28.77
2018-07-21T15:20:54.562Z,28.81
2018-07-21T15:23:23.340Z,28.80
2018-07-21T15:25:52.193Z,28.83
2018-07-21T15:28:21.058Z,28.76
2018-07-21T15:30:49.850Z,28.73
2018-07-21T15:33:18.629Z,28.67
2018-07-21T15:35:47.370Z,28.56
2018-07-21T15:38:16.524Z,28.44
2018-07-21T15:40:45.311Z,28.40
2018-07-21T15:43:14.109Z,28.42
2018-07-21T15:45:42.878Z,28.40
2018-07-21T15:48:12.302Z,28.42
2018-07-21T15:50:41.672Z,28.35
2018-07-21T15:53:10.453Z,28.36
2018-07-21T15:55:39.265Z,28.37
2018-07-21T15:58:08.070Z,28.38
2018-07-21T16:00:36.871Z,28.41
2018-07-21T16:03:05.660Z,28.48
2018-07-21T16:05:34.501Z,28.47
2018-07-21T16:08:03.614Z,28.45
2018-07-21T16:10:32.435Z,28.38
2018-07-21T16:13:01.210Z,28.28
2018-07-21T16:15:30.063Z,28.18
2018-07-21T16:17:58.821Z,28.12
2018-07-21T16:20:27.682Z,28.14
2018-07-21T16:22:56.470Z,28.10
2018-07-21T16:25:25.227Z,28.13
2018-07-21T16:27:54.086Z,28.14
2018-07-21T16:30:23.013Z,28.12
2018-07-21T16:32:51.793Z,28.07
2018-07-21T16:35:20.623Z,28.09
2018-07-21T16:37:49.433Z,28.08
2018-07-21T16:40:18.263Z,28.03
2018-07-21T16:42:47.205Z,28.04
2018-07-21T16:45:16.046Z,27.96
2018-07-21T16:47:44.816Z,27.88
2018-07-21T16:50:13.655Z,27.79
2018-07-21T16:52:42.433Z,27.74
2018-07-21T16:55:11.217Z,27.72
2018-07-21T16:57:40.018Z,27.67
2018-07-21T17:00:08.908Z,27.59
2018-07-21T17:02:37.807Z,27.59
2018-07-21T17:05:06.927Z,27.58
2018-07-21T17:07:35.695Z,27.55
2018-07-21T17:10:05.261Z,27.52
2018-07-21T17:12:34.343Z,27.49
2018-07-21T17:15:03.115Z,27.44
2018-07-21T17:17:31.974Z,27.44
2018-07-21T17:20:00.760Z,27.40
2018-07-21T17:22:29.521Z,27.35
2018-07-21T17:24:58.289Z,27.33
2018-07-21T17:27:27.042Z,27.32
2018-07-21T17:29:55.864Z,27.30
2018-07-21T17:32:24.804Z,27.27
2018-07-21T17:34:54.211Z,27.23
2018-07-21T17:37:22.946Z,27.09
2018-07-21T17:39:51.722Z,27.04
2018-07-21T17:42:20.482Z,26.93
2018-07-21T17:44:49.370Z,26.83
2018-07-21T17:47:18.286Z,26.67
2018-07-21T17:49:47.055Z,26.63
2018-07-21T17:52:16.197Z,26.54
2018-07-21T17:54:45.135Z,26.46
2018-07-21T17:57:13.934Z,26.40
2018-07-21T17:59:43.115Z,26.25
2018-07-21T18:02:11.883Z,26.13
2018-07-21T18:04:40.658Z,26.04
2018-07-21T18:07:09.701Z,25.97
2018-07-21T18:09:38.443Z,25.91
2018-07-21T18:12:07.281Z,25.79
2018-07-21T18:14:36.042Z,25.73
2018-07-21T18:17:04.854Z,25.62
2018-07-21T18:19:33.658Z,25.57
2018-07-21T18:22:02.462Z,25.44
2018-07-21T18:24:31.223Z,25.42
2018-07-21T18:27:00.090Z,25.45
2018-07-21T18:29:28.882Z,25.44
2018-07-21T18:31:57.667Z,25.51
2018-07-21T18:34:26.485Z,25.44
2018-07-21T18:36:55.364Z,25.37
2018-07-21T18:39:24.180Z,25.34
2018-07-21T18:41:52.967Z,25.26
2018-07-21T18:44:21.977Z,25.25
2018-07-21T18:46:50.762Z,25.16
2018-07-21T18:49:19.522Z,24.99
2018-07-21T18:51:48.282Z,24.93
2018-07-21T18:54:17.122Z,24.85
2018-07-21T18:56:45.917Z,24.77
2018-07-21T18:59:14.778Z,24.74
2018-07-21T19:01:43.810Z,24.72
2018-07-21T19:04:12.649Z,24.71
2018-07-21T19:06:41.464Z,24.69
2018-07-21T19:09:10.575Z,24.68
2018-07-21T19:11:39.387Z,24.64
2018-07-21T19:14:08.133Z,24.60
2018-07-21T19:16:38.381Z,24.54
2018-07-21T19:19:07.209Z,24.48
2018-07-21T19:21:36.094Z,24.41
2018-07-21T19:24:05.066Z,24.40
2018-07-21T19:26:39.161Z,24.40
2018-07-21T19:29:07.920Z,24.32
2018-07-21T19:31:38.529Z,24.34
2018-07-21T19:34:07.443Z,24.29
2018-07-21T19:36:36.283Z,24.26
2018-07-21T19:39:06.562Z,24.25
2018-07-21T19:41:40.780Z,24.24
2018-07-21T19:44:09.563Z,24.16
2018-07-21T19:46:38.362Z,24.11
2018-07-21T19:49:07.132Z,24.06
2018-07-21T19:51:35.962Z,24.05
2018-07-21T19:54:04.762Z,24.10
2018-07-21T19:56:33.618Z,24.12
2018-07-21T19:59:02.613Z,24.11
2018-07-21T20:01:31.386Z,24.12
2018-07-21T20:04:00.296Z,24.09
2018-07-21T20:06:29.083Z,24.11
2018-07-21T20:08:57.850Z,24.08
2018-07-21T20:11:26.631Z,24.07
2018-07-21T20:13:55.509Z,24.09
2018-07-21T20:16:24.638Z,24.10
2018-07-21T20:18:53.393Z,24.12
2018-07-21T20:21:22.296Z,24.13
2018-07-21T20:23:51.204Z,24.12
2018-07-21T20:26:20.011Z,24.09
2018-07-21T20:28:48.790Z,24.00
2018-07-21T20:31:17.588Z,24.01
2018-07-21T20:33:46.378Z,24.00
2018-07-21T20:36:15.169Z,23.94
2018-07-21T20:38:43.961Z,23.92
2018-07-21T20:41:12.856Z,23.87
2018-07-21T20:43:41.675Z,23.80
2018-07-21T20:46:10.573Z,23.77
2018-07-21T20:48:39.412Z,23.74
2018-07-21T20:51:08.398Z,23.65
2018-07-21T20:53:37.164Z,23.60
2018-07-21T20:56:06.215Z,23.54
2018-07-21T20:58:34.998Z,23.47
2018-07-21T21:01:03.853Z,23.38
2018-07-21T21:03:32.647Z,23.32
2018-07-21T21:06:01.372Z,23.23
2018-07-21T21:08:30.188Z,23.21
2018-07-21T21:11:06.644Z,23.22
2018-07-21T21:13:35.669Z,23.22
2018-07-21T21:16:04.503Z,23.21
2018-07-21T21:18:33.335Z,23.20
2018-07-21T21:21:02.168Z,23.22
2018-07-21T21:23:30.986Z,23.20
2018-07-21T21:26:06.753Z,23.13
2018-07-21T21:28:35.571Z,23.05
2018-07-21T21:31:04.365Z,23.01
2018-07-21T21:33:33.138Z,23.00
2018-07-21T21:36:01.984Z,22.99
2018-07-21T21:38:30.770Z,22.98
2018-07-21T21:40:59.594Z,22.94
2018-07-21T21:43:28.397Z,22.89
2018-07-21T21:45:57.246Z,22.87
2018-07-21T21:48:26.133Z,22.85
2018-07-21T21:50:55.134Z,22.86
2018-07-21T21:53:23.931Z,22.81
2018-07-21T21:55:52.771Z,22.76
2018-07-21T21:58:21.553Z,22.73
2018-07-21T22:01:19.556Z,22.71
2018-07-21T22:03:48.335Z,22.68
2018-07-21T22:06:17.471Z,22.64
2018-07-21T22:08:46.331Z,22.64
2018-07-21T22:11:15.110Z,22.61
2018-07-21T22:13:43.945Z,22.57
2018-07-21T22:16:12.790Z,22.47
2018-07-21T22:18:41.562Z,22.38
2018-07-21T22:21:10.386Z,22.30
2018-07-21T22:23:39.176Z,22.24
2018-07-21T22:26:07.994Z,22.17
2018-07-21T22:28:37.186Z,22.14
2018-07-21T22:31:05.963Z,22.15
2018-07-21T22:33:34.990Z,22.15
2018-07-21T22:36:03.826Z,22.21
2018-07-21T22:38:32.977Z,22.25
2018-07-21T22:41:01.798Z,22.26
2018-07-21T22:43:30.592Z,22.26
2018-07-21T22:45:59.514Z,22.18
2018-07-21T22:48:28.264Z,22.14
2018-07-21T22:50:57.067Z,22.14
2018-07-21T22:53:25.822Z,22.18
2018-07-21T22:55:54.575Z,22.20
2018-07-21T22:58:23.342Z,22.20
2018-07-21T23:00:52.184Z,22.20
2018-07-21T23:03:21.383Z,22.17
2018-07-21T23:05:50.186Z,22.12
2018-07-21T23:08:18.994Z,22.09
2018-07-21T23:10:47.762Z,22.05
2018-07-21T23:13:16.574Z,22.02
2018-07-21T23:15:45.337Z,22.03
2018-07-21T23:18:14.168Z,22.03
2018-07-21T23:20:42.989Z,22.02
2018-07-21T23:25:39.549Z,21.87
2018-07-21T23:28:08.358Z,21.89
2018-07-21T23:30:37.164Z,21.83
2018-07-21T23:33:05.951Z,21.77
2018-07-21T23:35:34.717Z,21.78
2018-07-21T23:38:03.497Z,21.77
2018-07-21T23:40:32.315Z,21.75
2018-07-21T23:43:01.113Z,21.73
2018-07-21T23:45:29.883Z,21.67
2018-07-21T23:47:58.636Z,21.58
2018-07-21T23:50:27.469Z,21.51
2018-07-21T23:52:56.254Z,21.52
2018-07-21T23:55:25.131Z,21.48
2018-07-21T23:57:54.246Z,21.39
